Darstellungsparameter: Aktuell verwendete Einstellungen:
Skalierung der Graphiken ... ?
xyx+y,   Skalierungsfaktor:      Skalierung: Modus: x, Faktor: 1
Darstellungszeitraum ... ?
Vom - - bis: - -   Zeitraum: 08.05.2021 - 09.05.2021
Min/Max/Avg-Anzeige ... ?
Zeige MMA aktuell
Zeige MMA Monat
Zeige MMA alles
Zeige --A aktuell
Zeige --A Monat
Zeige --A alles
Keine MMA-Anzeige
MMA:
Minimum Maximum Average (ber die Originaldaten)
MMA-Basis: 08.05.2021 - 09.05.2021
Quicknavigation für Darstellung... ?
Tage:      1T, 2T, 3T, 5T -1T -2T -3T -5T +1T +2T +3T +5T
Wochen: 1W, 2W, 3W -1W -2W -3W +1W +2W +3W
Monate: 1M, 3M, 6M -1M -3M -6M +1M +3M +6M
Jahre:    1J, 3J, 5J, 10J -1J -3J -5J -10J +1J +3J +5J +10J
Nutze für die Darstellung ... ?
Originaldaten oder Mittelwerte auf ...
Stundenbasis Tagesbasis Wochenbasis
Monatsbasis Jahresbasis      Datenbasis: Original-Daten
Darstellen als:
Statistik (Auto) Statistik J:M      Darstellung:

Der gewünschte Datumsbereich war nicht gültig/verfügbar und wurde korrigiert....
Das angegebene Enddatum (15.02.2022 23:59:59) liegt in der Zukunft.
Das angegebene Startdatum (02.02.2022 00:00:00) liegt in der Zukunft.


Zur Graphik,    zurück zur Übersicht aller Sensoren.
 
Tabellarische Datenbersicht: ?
 
Sensor: Nr:Datum:Temp:Feuchte:Taupunkt:
Aussen-T/F 1 08-05-2021 02:00:00 3.2 C 90 % 1.72 C
2 08-05-2021 02:05:00 3.1 C 90 % 1.62 C
3 08-05-2021 02:10:00 3 C 89 % 1.37 C
4 08-05-2021 02:15:00 2.9 C 90 % 1.43 C
5 08-05-2021 02:20:00 2.8 C 90 % 1.33 C
6 08-05-2021 02:25:00 2.7 C 90 % 1.23 C
7 08-05-2021 02:30:00 2.7 C 90 % 1.23 C
8 08-05-2021 02:35:00 2.7 C 91 % 1.38 C
9 08-05-2021 02:40:00 2.8 C 90 % 1.33 C
10 08-05-2021 02:45:00 2.7 C 90 % 1.23 C
11 08-05-2021 02:50:00 2.6 C 90 % 1.13 C
12 08-05-2021 02:55:00 2.4 C 90 % 0.93 C
13 08-05-2021 03:00:00 2.3 C 90 % 0.83 C
14 08-05-2021 03:05:00 2.3 C 90 % 0.83 C
15 08-05-2021 03:10:00 2.2 C 90 % 0.73 C
16 08-05-2021 03:15:00 2.1 C 90 % 0.64 C
17 08-05-2021 03:20:00 2.1 C 91 % 0.79 C
18 08-05-2021 03:25:00 1.9 C 91 % 0.59 C
19 08-05-2021 03:30:00 1.9 C 91 % 0.59 C
20 08-05-2021 03:35:00 1.8 C 91 % 0.49 C
21 08-05-2021 03:40:00 1.8 C 91 % 0.49 C
22 08-05-2021 03:45:00 1.7 C 91 % 0.39 C
23 08-05-2021 03:50:00 1.7 C 91 % 0.39 C
24 08-05-2021 03:55:00 1.6 C 91 % 0.29 C
25 08-05-2021 04:00:00 1.6 C 92 % 0.44 C
Sensor: Nr:Datum:Temp:Feuchte:Taupunkt:
Aussen-T/F 26 08-05-2021 04:05:00 1.6 C 92 % 0.44 C
27 08-05-2021 04:10:00 1.6 C 92 % 0.44 C
28 08-05-2021 04:15:00 1.5 C 92 % 0.35 C
29 08-05-2021 04:20:00 1.4 C 92 % 0.25 C
30 08-05-2021 04:25:00 1.4 C 92 % 0.25 C
31 08-05-2021 04:30:00 1.3 C 92 % 0.15 C
32 08-05-2021 04:35:00 1.3 C 92 % 0.15 C
33 08-05-2021 04:40:00 1.3 C 92 % 0.15 C
34 08-05-2021 04:45:00 1.3 C 92 % 0.15 C
35 08-05-2021 04:50:00 1.3 C 93 % 0.3 C
36 08-05-2021 04:55:00 1.3 C 93 % 0.3 C
37 08-05-2021 05:00:00 1.2 C 92 % 0.05 C
38 08-05-2021 05:05:00 1.2 C 92 % 0.05 C
39 08-05-2021 05:10:00 1.2 C 93 % 0.2 C
40 08-05-2021 05:15:00 1.1 C 93 % 0.1 C
41 08-05-2021 05:20:00 1.1 C 93 % 0.1 C
42 08-05-2021 05:25:00 1 C 93 % 0 C
43 08-05-2021 05:30:00 1 C 93 % 0 C
44 08-05-2021 05:35:00 1 C 93 % 0 C
45 08-05-2021 05:40:00 0.9 C 93 % -0.1 C
46 08-05-2021 05:45:00 0.9 C 93 % -0.1 C
47 08-05-2021 05:50:00 0.8 C 93 % -0.2 C
48 08-05-2021 05:55:00 0.8 C 93 % -0.2 C
49 08-05-2021 06:00:00 0.8 C 93 % -0.2 C
50 08-05-2021 06:05:00 0.8 C 93 % -0.2 C
Sensor: Nr:Datum:Temp:Feuchte:Taupunkt:
Aussen-T/F 51 08-05-2021 06:10:00 0.7 C 93 % -0.3 C
52 08-05-2021 06:15:00 0.7 C 93 % -0.3 C
53 08-05-2021 06:20:00 0.7 C 93 % -0.3 C
54 08-05-2021 06:25:00 0.7 C 93 % -0.3 C
55 08-05-2021 06:30:00 0.7 C 93 % -0.3 C
56 08-05-2021 06:35:00 0.7 C 94 % -0.15 C
57 08-05-2021 06:40:00 0.7 C 94 % -0.15 C
58 08-05-2021 06:45:00 0.8 C 94 % -0.05 C
59 08-05-2021 06:50:00 0.8 C 94 % -0.05 C
60 08-05-2021 06:55:00 0.9 C 94 % 0.05 C
61 08-05-2021 07:00:00 1 C 94 % 0.15 C
62 08-05-2021 07:05:00 1.2 C 94 % 0.34 C
63 08-05-2021 07:10:00 1.2 C 95 % 0.49 C
64 08-05-2021 07:15:00 1.2 C 94 % 0.34 C
65 08-05-2021 07:20:00 1.3 C 94 % 0.44 C
66 08-05-2021 07:25:00 1.3 C 94 % 0.44 C
67 08-05-2021 07:30:00 1.3 C 94 % 0.44 C
68 08-05-2021 07:35:00 1.4 C 94 % 0.54 C
69 08-05-2021 07:40:00 1.4 C 94 % 0.54 C
70 08-05-2021 07:45:00 1.6 C 95 % 0.89 C
71 08-05-2021 07:50:00 1.7 C 95 % 0.99 C
72 08-05-2021 07:55:00 1.9 C 95 % 1.19 C
73 08-05-2021 08:00:00 2.1 C 95 % 1.38 C
74 08-05-2021 08:05:00 2.2 C 95 % 1.48 C
75 08-05-2021 08:10:00 2.4 C 95 % 1.68 C
Sensor: Nr:Datum:Temp:Feuchte:Taupunkt:
Aussen-T/F 76 08-05-2021 08:15:00 2.6 C 95 % 1.88 C
77 08-05-2021 08:20:00 2.8 C 95 % 2.08 C
78 08-05-2021 08:25:00 2.9 C 96 % 2.33 C
79 08-05-2021 08:30:00 3.1 C 95 % 2.38 C
80 08-05-2021 08:35:00 3.3 C 96 % 2.72 C
81 08-05-2021 08:40:00 3.6 C 96 % 3.02 C
82 08-05-2021 08:45:00 3.8 C 96 % 3.22 C
83 08-05-2021 08:50:00 4 C 96 % 3.42 C
84 08-05-2021 08:55:00 4.2 C 96 % 3.62 C
85 08-05-2021 09:00:00 4.4 C 96 % 3.82 C
86 08-05-2021 09:05:00 4.7 C 95 % 3.97 C
87 08-05-2021 09:10:00 4.9 C 95 % 4.17 C
88 08-05-2021 09:15:00 5.2 C 95 % 4.47 C
89 08-05-2021 09:20:00 5.4 C 95 % 4.66 C
90 08-05-2021 09:25:00 5.7 C 94 % 4.81 C
91 08-05-2021 09:30:00 6.1 C 93 % 5.06 C
92 08-05-2021 09:35:00 6.4 C 91 % 5.04 C
93 08-05-2021 09:40:00 6.7 C 89 % 5.02 C
94 08-05-2021 09:45:00 7 C 87 % 4.99 C
95 08-05-2021 09:50:00 7.3 C 85 % 4.95 C
96 08-05-2021 09:55:00 7.7 C 84 % 5.17 C
97 08-05-2021 10:00:00 8 C 81 % 4.94 C
98 08-05-2021 10:05:00 8.3 C 80 % 5.06 C
99 08-05-2021 10:10:00 8.6 C 79 % 5.17 C
100 08-05-2021 10:15:00 8.8 C 77 % 5 C
Sensor: Nr:Datum:Temp:Feuchte:Taupunkt:
Aussen-T/F 101 08-05-2021 10:20:00 9.1 C 78 % 5.47 C
102 08-05-2021 10:25:00 9.3 C 76 % 5.29 C
103 08-05-2021 10:30:00 9.6 C 75 % 5.39 C
104 08-05-2021 10:35:00 9.8 C 75 % 5.59 C

Legende:
   Min
   Max


Maximal/Minimal-Werte vom 08.05.2021 - 09.05.2021

Sensor Min Max Avg
Temp
(Aussen-T/F)
0.7 °C
08-05-2021  06:10:00
9.8 °C
08-05-2021  10:35:00
2.8 °C
Feuchte
(Aussen-T/F)
75 %
08-05-2021  10:30:00
96 %
08-05-2021  08:25:00
91.41 %
Taupunkt
(Aussen-T/F)
-0.3 C
08-05-2021  06:10:00
5.59 C
08-05-2021  10:35:00
1.51 C

Die Daten stammen von einer Davis Vantage Pro 2 Wetter-Station und werden unter Linux mit der Software wview2wettercgi und aufbereitet. Alle Angaben erfolgen ohne Gewähr für ihre Vollständigkeit oder Richtigkeit.
Kontakt: Rainer Krienke krienke@uni-koblenz.de . Meine Webseiten an der Uni Koblenz oder privat.
Version: $Revision: 0.78 $